DTTD

Remada Air Base Airport

Remada, Tunisia
METAR DTTD 211300Z VRB03KT CAVOK 43/04 Q1014 RMK SIROCCO
Observed Flight Rules
Jul-21 @ 13:00 UTC (51 minutes ago) Visual Flight Rules
Wind Visibility Clouds
Variable at 3 knots 10,000+ meters
  • Clear skies
Temperatures Readings
Current 43°C / 109°F
Dewpoint 4°C / 39°F
Humidity 9%
Altimeter 29.94" Hg
Pressure 1014 hPa
Elevation 301
METAR DTTD 211300Z VRB03KT CAVOK 43/04 Q1014 RMK SIROCCO
Observed Flight Rules
Jul-21 @ 13:00 UTC
(51 minutes ago)
VFR
Wind Visibility
Variable at 3 knots 10,000+ meters
Clouds
  • Clear skies
Temperature Dewpoint
43°C / 109°F 4°C / 39°F
Humidity Altimeter Pressure
9% 29.94" Hg 1014 hPa